Time;durP1;ratioP1;P1;durP2;ratioP2;P2;SDS_P1;SDS_P2;PMS_P1;PMS_P2;Temp;Humidity;BMP_temperature;BMP_pressure;BME280_temperature;BME280_humidity;BME280_pressure;Samples;Min_cycle;Max_cycle;Signal;HPM_P1;HPM_P2
2023/02/10 00:00:51;;;;;;;50.03;15.93;;;;;;;1.60;100.00;102800.34;7398280;19;20843;-56
2023/02/10 00:03:23;;;;;;;65.87;19.03;;;;;;;1.60;100.00;102796.13;7394657;19;20454;-58
2023/02/10 00:05:53;;;;;;;57.33;20.97;;;;;;;1.60;100.00;102778.31;7396891;19;20462;-56
2023/02/10 00:08:22;;;;;;;65.27;24.30;;;;;;;1.61;100.00;102790.34;7392054;19;20394;-58
2023/02/10 00:10:52;;;;;;;59.93;22.50;;;;;;;1.64;100.00;102781.22;7394976;19;20396;-55
2023/02/10 00:13:21;;;;;;;52.97;21.77;;;;;;;1.64;100.00;102782.09;7391134;19;20425;-53
2023/02/10 00:15:51;;;;;;;55.17;22.20;;;;;;;1.66;100.00;102770.47;7393407;19;20419;-53
2023/02/10 00:18:20;;;;;;;58.60;19.80;;;;;;;1.71;100.00;102764.25;7392048;19;20475;-56
2023/02/10 00:20:52;;;;;;;56.20;21.90;;;;;;;1.71;100.00;102759.16;7394837;19;20379;-57
2023/02/10 00:23:22;;;;;;;50.13;20.50;;;;;;;1.71;100.00;102759.16;7391220;19;20489;-56
2023/02/10 00:25:51;;;;;;;40.50;15.60;;;;;;;1.73;100.00;102747.50;7393284;19;21104;-56
2023/02/10 00:28:20;;;;;;;45.77;17.70;;;;;;;1.77;100.00;102747.81;7391472;19;20403;-55
2023/02/10 00:30:50;;;;;;;61.53;21.93;;;;;;;1.75;100.00;102748.56;7392997;19;20375;-52
2023/02/10 00:33:19;;;;;;;31.03;12.90;;;;;;;1.73;100.00;102744.94;7390635;19;20414;-52
2023/02/10 00:35:51;;;;;;;53.93;16.17;;;;;;;1.74;100.00;102753.47;7392671;19;20962;-53
2023/02/10 00:38:21;;;;;;;37.17;14.63;;;;;;;1.76;100.00;102752.03;7391753;19;20421;-54
2023/02/10 00:40:50;;;;;;;49.00;18.40;;;;;;;1.73;100.00;102747.50;7394409;19;21049;-52
2023/02/10 00:43:20;;;;;;;54.60;19.83;;;;;;;1.78;100.00;102749.66;7391235;19;20430;-55
2023/02/10 00:45:49;;;;;;;46.23;17.20;;;;;;;1.78;100.00;102749.66;7392416;19;21094;-56
2023/02/10 00:48:18;;;;;;;41.97;15.93;;;;;;;1.75;100.00;102748.56;7390965;19;20429;-52
2023/02/10 00:50:48;;;;;;;55.33;19.50;;;;;;;1.81;100.00;102755.06;7393944;19;20384;-55
2023/02/10 00:53:20;;;;;;;45.90;18.23;;;;;;;1.79;100.00;102757.44;7389078;19;20414;-56
2023/02/10 00:55:49;;;;;;;52.90;17.37;;;;;;;1.80;100.00;102763.44;7392178;19;20981;-57
2023/02/10 00:58:19;;;;;;;60.67;20.30;;;;;;;1.82;100.00;102767.06;7389868;19;20988;-56
2023/02/10 01:00:49;;;;;;;50.00;17.73;;;;;;;1.81;100.00;102762.69;7393343;19;20898;-52
2023/02/10 01:03:19;;;;;;;66.23;19.43;;;;;;;1.80;100.00;102764.31;7390434;19;20402;-55
2023/02/10 01:05:48;;;;;;;52.27;21.50;;;;;;;1.84;100.00;102773.22;7392060;19;20405;-55
2023/02/10 01:08:21;;;;;;;56.93;21.20;;;;;;;1.83;100.00;102768.84;7392761;19;20429;-53
2023/02/10 01:10:50;;;;;;;45.63;16.80;;;;;;;1.81;100.00;102776.34;7393058;19;20383;-55
2023/02/10 01:13:20;;;;;;;51.93;20.50;;;;;;;1.84;100.00;102765.59;7388751;19;20447;-53
2023/02/10 01:15:49;;;;;;;52.43;19.37;;;;;;;1.84;100.00;102775.78;7391611;19;20386;-51
2023/02/10 01:18:19;;;;;;;70.60;21.47;;;;;;;1.84;100.00;102775.78;7390260;19;20416;-55
2023/02/10 01:20:48;;;;;;;46.77;18.33;;;;;;;1.81;100.00;102773.81;7392843;19;20410;-52
2023/02/10 01:23:20;;;;;;;48.50;19.43;;;;;;;1.83;100.00;102776.50;7389253;19;20423;-52
2023/02/10 01:25:50;;;;;;;56.43;19.20;;;;;;;1.89;100.00;102779.72;7391105;19;20424;-55
2023/02/10 01:28:19;;;;;;;58.67;19.73;;;;;;;1.85;100.00;102775.03;7389756;19;20411;-53
2023/02/10 01:30:49;;;;;;;57.23;19.67;;;;;;;1.89;100.00;102779.72;7392732;19;20383;-51
2023/02/10 01:33:18;;;;;;;48.57;16.63;;;;;;;1.86;100.00;102777.72;7388834;19;20411;-51
2023/02/10 01:35:47;;;;;;;47.37;18.13;;;;;;;1.85;100.00;102778.47;7390969;19;20399;-54
2023/02/10 01:38:17;;;;;;;63.03;20.47;;;;;;;1.88;100.00;102775.34;7390068;19;20417;-53
2023/02/10 01:40:52;;;;;;;70.33;20.50;;;;;;;1.87;100.00;102773.56;7392352;19;20380;-56
2023/02/10 01:43:22;;;;;;;52.50;17.43;;;;;;;1.90;100.00;102766.28;7386036;19;20433;-56
2023/02/10 01:45:51;;;;;;;51.97;15.27;;;;;;;1.88;100.00;102771.19;7390727;19;20481;-55
2023/02/10 01:48:22;;;;;;;40.23;14.90;;;;;;;1.87;100.00;102771.94;7389150;19;20398;-53
2023/02/10 01:50:54;;;;;;;48.70;17.80;;;;;;;1.87;100.00;102771.00;7394231;19;21024;-55
2023/02/10 01:53:25;;;;;;;43.80;16.07;;;;;;;1.86;100.00;102759.03;7388077;19;20431;-50
2023/02/10 01:55:59;;;;;;;41.43;15.17;;;;;;;1.84;100.00;102761.38;7390587;19;20413;-54
2023/02/10 01:58:30;;;;;;;45.03;15.90;;;;;;;1.83;100.00;102758.66;7387954;19;20415;-55
2023/02/10 02:01:00;;;;;;;36.80;14.73;;;;;;;1.82;100.00;102756.88;7392046;19;20387;-51
2023/02/10 02:03:30;;;;;;;27.63;10.50;;;;;;;1.78;100.00;102759.84;7388188;19;20402;-53
2023/02/10 02:05:59;;;;;;;55.13;17.23;;;;;;;1.75;100.00;102751.09;7390663;19;20434;-57
2023/02/10 02:08:31;;;;;;;49.90;17.60;;;;;;;1.74;100.00;102759.47;7390951;19;20439;-56
2023/02/10 02:11:17;;;;;;;40.07;15.30;;;;;;;1.78;100.00;102764.94;7391413;19;20400;-58
2023/02/10 02:13:58;;;;;;;40.10;17.80;;;;;;;1.78;100.00;102759.84;7387346;19;20425;-56
2023/02/10 02:16:35;;;;;;;56.57;17.33;;;;;;;1.80;100.00;102765.97;7390053;19;20761;-54
2023/02/10 02:19:17;;;;;;;43.93;16.70;;;;;;;1.80;100.00;102776.16;7388455;19;20415;-54
2023/02/10 02:22:07;;;;;;;38.83;16.37;;;;;;;1.86;100.00;102776.84;7391234;19;20402;-53
2023/02/10 02:24:58;;;;;;;54.07;16.43;;;;;;;1.83;100.00;102772.31;7388622;19;20422;-52
2023/02/10 02:27:51;;;;;;;45.17;12.87;;;;;;;1.83;100.00;102779.03;7387837;19;20402;-53
2023/02/10 02:30:49;;;;;;;42.67;16.13;;;;;;;1.82;100.00;102772.13;7391167;19;21346;-55
2023/02/10 02:33:25;;;;;;;28.67;13.23;;;;;;;1.78;100.00;102765.81;7385107;19;20769;-56
2023/02/10 02:35:58;;;;;;;53.90;17.37;;;;;;;1.77;100.00;102773.28;7392888;19;20638;-53
2023/02/10 02:38:28;;;;;;;56.20;17.50;;;;;;;1.75;100.00;102774.00;7389162;19;20422;-56
2023/02/10 02:40:57;;;;;;;71.40;17.30;;;;;;;1.73;100.00;102774.56;7394154;19;20423;-57
2023/02/10 02:43:27;;;;;;;53.13;16.90;;;;;;;1.76;100.00;102787.66;7389017;19;21005;-57
2023/02/10 02:46:00;;;;;;;35.83;16.00;;;;;;;1.79;100.00;102784.53;7392767;19;20435;-55
2023/02/10 02:48:46;;;;;;;33.57;13.23;;;;;;;1.78;100.00;102785.28;7388541;19;20446;-52
2023/02/10 02:51:21;;;;;;;31.63;10.77;;;;;;;1.81;100.00;102790.69;7394675;19;20391;-51
2023/02/10 02:53:58;;;;;;;39.30;13.07;;;;;;;1.76;100.00;102782.56;7388851;19;21308;-58
2023/02/10 02:56:33;;;;;;;26.23;11.50;;;;;;;1.73;100.00;102784.75;7397906;19;21001;-53
2023/02/10 02:59:07;;;;;;;52.23;17.47;;;;;;;1.73;100.00;102778.03;7396062;19;20442;-57
2023/02/10 03:01:38;;;;;;;25.97;9.83;;;;;;;1.71;100.00;102776.97;7400932;19;20382;-52
2023/02/10 03:04:10;;;;;;;46.60;15.63;;;;;;;1.73;100.00;102778.03;7396349;19;20534;-50
2023/02/10 03:06:40;;;;;;;48.07;15.90;;;;;;;1.70;100.00;102770.06;7396628;19;20518;-50
2023/02/10 03:09:09;;;;;;;44.37;14.73;;;;;;;1.70;100.00;102772.59;7396530;19;20468;-53
2023/02/10 03:11:39;;;;;;;51.57;16.83;;;;;;;1.74;100.00;102779.84;7400448;19;20387;-55
2023/02/10 03:14:08;;;;;;;41.50;15.87;;;;;;;1.72;100.00;102773.69;7393871;19;20812;-54
2023/02/10 03:16:38;;;;;;;46.97;16.77;;;;;;;1.67;100.00;102772.28;7397357;19;20431;-56
2023/02/10 03:19:10;;;;;;;41.67;16.07;;;;;;;1.68;100.00;102775.72;7398176;19;20442;-52
2023/02/10 03:21:39;;;;;;;52.93;16.57;;;;;;;1.69;100.00;102770.78;7400393;19;20506;-54
2023/02/10 03:24:09;;;;;;;47.77;16.83;;;;;;;1.69;100.00;102767.34;7395432;19;20435;-57
2023/02/10 03:26:39;;;;;;;42.23;10.53;;;;;;;1.68;100.00;102774.06;7396832;19;20446;-57
2023/02/10 03:29:09;;;;;;;36.97;13.90;;;;;;;1.67;100.00;102762.09;7396369;19;20441;-55
2023/02/10 03:31:39;;;;;;;38.93;15.70;;;;;;;1.66;100.00;102765.38;7399804;19;20415;-53
2023/02/10 03:34:11;;;;;;;44.73;15.93;;;;;;;1.63;100.00;102770.13;7393245;19;20434;-53
2023/02/10 03:36:40;;;;;;;46.00;16.73;;;;;;;1.64;100.00;102769.38;7397391;19;20443;-54
2023/02/10 03:39:10;;;;;;;48.93;16.20;;;;;;;1.63;100.00;102774.31;7396121;19;20799;-57
2023/02/10 03:41:39;;;;;;;44.90;16.73;;;;;;;1.62;100.00;102786.13;7399566;19;20401;-54
2023/02/10 03:44:09;;;;;;;41.03;16.80;;;;;;;1.63;100.00;102775.22;7394361;19;20428;-51
2023/02/10 03:46:39;;;;;;;52.53;18.70;;;;;;;1.56;100.00;102782.91;7396758;19;21007;-53
2023/02/10 03:49:11;;;;;;;50.60;17.43;;;;;;;1.58;100.00;102786.50;7395460;19;20432;-52
2023/02/10 03:51:40;;;;;;;31.33;13.67;;;;;;;1.64;100.00;102788.84;7399399;19;20405;-56
2023/02/10 03:54:09;;;;;;;43.97;16.30;;;;;;;1.58;100.00;102781.41;7392669;19;20459;-54
2023/02/10 03:56:39;;;;;;;37.20;15.37;;;;;;;1.60;100.00;102782.53;7396093;19;20426;-57
2023/02/10 03:59:08;;;;;;;38.70;14.07;;;;;;;1.53;100.00;102793.63;7393807;19;20445;-57
2023/02/10 04:01:38;;;;;;;41.90;18.00;;;;;;;1.51;100.00;102790.03;7398768;19;20382;-56
2023/02/10 04:04:10;;;;;;;41.13;17.70;;;;;;;1.55;100.00;102786.19;7394054;19;20427;-53
2023/02/10 04:06:40;;;;;;;42.63;15.47;;;;;;;1.52;100.00;102796.94;7394064;19;20992;-53
2023/02/10 04:09:09;;;;;;;47.00;16.47;;;;;;;1.49;100.00;102799.16;7393777;19;20417;-53
2023/02/10 04:11:39;;;;;;;44.63;18.27;;;;;;;1.52;100.00;102803.63;7398251;19;20388;-56
2023/02/10 04:14:08;;;;;;;43.00;17.27;;;;;;;1.41;100.00;102813.53;7392751;19;20453;-54
2023/02/10 04:16:38;;;;;;;48.10;16.97;;;;;;;1.44;100.00;102807.91;7396169;19;20975;-56
2023/02/10 04:19:10;;;;;;;33.60;14.57;;;;;;;1.46;100.00;102809.88;7394603;19;20518;-54
2023/02/10 04:21:40;;;;;;;47.17;17.27;;;;;;;1.43;100.00;102801.00;7398444;19;20407;-54
2023/02/10 04:24:09;;;;;;;42.47;18.87;;;;;;;1.41;100.00;102805.00;7392624;19;20432;-55
2023/02/10 04:26:39;;;;;;;37.83;15.40;;;;;;;1.39;100.00;102803.94;7395368;19;20433;-53
2023/02/10 04:29:08;;;;;;;49.00;18.70;;;;;;;1.40;100.00;102811.75;7394598;19;20433;-54
2023/02/10 04:31:38;;;;;;;44.90;19.43;;;;;;;1.40;100.00;102808.28;7397752;19;20952;-55
2023/02/10 04:34:07;;;;;;;43.20;16.60;;;;;;;1.41;100.00;102810.09;7392191;19;20539;-51
2023/02/10 04:36:39;;;;;;;38.50;16.87;;;;;;;1.37;100.00;102813.03;7395040;19;20443;-56
2023/02/10 04:39:09;;;;;;;61.80;20.40;;;;;;;1.35;100.00;102810.31;7393694;19;20991;-55
2023/02/10 04:41:38;;;;;;;47.35;18.10;;;;;;;1.34;100.00;102816.13;7397762;19;20759;-53
2023/02/10 04:44:08;;;;;;;41.17;16.07;;;;;;;1.34;100.00;102816.13;7393521;19;20186;-52
2023/02/10 04:46:37;;;;;;;37.30;14.33;;;;;;;1.36;100.00;102809.56;7395209;19;20458;-56
2023/02/10 04:49:07;;;;;;;51.53;18.07;;;;;;;1.35;100.00;102811.19;7393365;19;20482;-55
2023/02/10 04:51:36;;;;;;;68.17;20.87;;;;;;;1.27;100.00;102806.03;7397297;19;20419;-56
2023/02/10 04:54:08;;;;;;;40.60;14.97;;;;;;;1.23;100.00;102811.47;7391599;19;20466;-54
2023/02/10 04:56:38;;;;;;;59.37;20.03;;;;;;;1.23;100.00;102816.56;7395410;19;20950;-53
2023/02/10 04:59:07;;;;;;;64.43;23.53;;;;;;;1.24;100.00;102823.47;7393192;19;20406;-54
2023/02/10 05:01:37;;;;;;;61.10;22.30;;;;;;;1.24;100.00;102824.38;7396603;19;20423;-52
2023/02/10 05:04:06;;;;;;;51.03;21.80;;;;;;;1.19;100.00;102831.47;7392746;19;20419;-55
2023/02/10 05:06:36;;;;;;;48.03;20.13;;;;;;;1.21;100.00;102835.09;7394885;19;20174;-56
2023/02/10 05:09:08;;;;;;;52.73;18.60;;;;;;;1.18;100.00;102838.94;7392084;19;20475;-53
2023/02/10 05:11:39;;;;;;;49.40;16.93;;;;;;;1.14;100.00;102837.69;7396623;19;20411;-52
2023/02/10 05:14:08;;;;;;;52.00;17.30;;;;;;;1.12;100.00;102843.34;7391598;19;20462;-53
2023/02/10 05:16:38;;;;;;;55.10;20.97;;;;;;;1.18;100.00;102850.00;7390988;19;20440;-53
2023/02/10 05:19:09;;;;;;;55.50;22.20;;;;;;;1.18;100.00;102855.09;7391535;19;20469;-52
2023/02/10 05:21:39;;;;;;;49.13;20.93;;;;;;;1.15;100.00;102859.84;7395258;19;20914;-56
2023/02/10 05:24:11;;;;;;;49.23;23.27;;;;;;;1.15;100.00;102858.91;7390767;19;21194;-52
2023/02/10 05:26:40;;;;;;;63.23;19.37;;;;;;;1.17;100.00;102862.53;7393218;19;20466;-55
2023/02/10 05:29:10;;;;;;;53.00;19.20;;;;;;;1.15;100.00;102872.56;7391255;19;20415;-57
2023/02/10 05:31:39;;;;;;;52.17;20.07;;;;;;;1.16;100.00;102860.72;7395043;19;20396;-55
2023/02/10 05:34:09;;;;;;;54.55;22.35;;;;;;;1.17;100.00;102863.47;7390223;19;20518;-56
2023/02/10 05:36:38;;;;;;;55.47;22.30;;;;;;;1.17;100.00;102868.53;7392884;19;20174;-50
2023/02/10 05:39:25;;;;;;;57.70;23.03;;;;;;;1.16;100.00;102865.81;7391658;19;20441;-53
2023/02/10 05:41:56;;;;;;;54.10;20.67;;;;;;;1.16;100.00;102879.44;7395443;19;20403;-51
2023/02/10 05:44:29;;;;;;;57.40;20.17;;;;;;;1.15;100.00;102880.19;7393463;19;20430;-56
2023/02/10 05:46:59;;;;;;;46.10;19.17;;;;;;;1.15;100.00;102875.09;7392810;19;20395;-53
2023/02/10 05:49:28;;;;;;;50.67;21.80;;;;;;;1.19;100.00;102864.53;7393667;19;20419;-54
2023/02/10 05:51:58;;;;;;;55.30;20.10;;;;;;;1.15;100.00;102870.00;7392475;19;20409;-55
2023/02/10 05:54:30;;;;;;;64.18;22.10;;;;;;;1.16;100.00;102871.81;7391869;19;20416;-54
2023/02/10 05:57:00;;;;;;;51.47;16.43;;;;;;;1.16;100.00;102881.06;7392304;19;20511;-53
2023/02/10 05:59:30;;;;;;;56.38;22.35;;;;;;;1.20;100.00;102874.00;7393288;19;20404;-56
2023/02/10 06:02:00;;;;;;;54.87;18.33;;;;;;;1.14;100.00;102868.22;7392801;19;20932;-52
2023/02/10 06:04:30;;;;;;;61.90;21.07;;;;;;;1.16;100.00;102873.44;7392610;19;20405;-54
2023/02/10 06:06:59;;;;;;;50.13;20.50;;;;;;;1.14;100.00;102878.38;7392610;19;20379;-56
2023/02/10 06:09:31;;;;;;;52.90;19.90;;;;;;;1.18;100.00;102880.53;7393644;19;20374;-52
2023/02/10 06:12:02;;;;;;;59.73;22.57;;;;;;;1.17;100.00;102887.97;7392080;19;20410;-52
2023/02/10 06:14:31;;;;;;;58.47;23.30;;;;;;;1.20;100.00;102894.34;7391999;19;20388;-57
2023/02/10 06:17:00;;;;;;;49.00;19.13;;;;;;;1.18;100.00;102895.78;7391785;19;20399;-54
2023/02/10 06:19:30;;;;;;;68.47;21.20;;;;;;;1.20;100.00;102891.81;7392934;19;21019;-59
2023/02/10 06:21:59;;;;;;;58.47;19.70;;;;;;;1.16;100.00;102892.16;7392460;19;20419;-59
2023/02/10 06:24:31;;;;;;;46.50;19.80;;;;;;;1.18;100.00;102900.88;7391653;19;20779;-59
2023/02/10 06:27:01;;;;;;;36.70;17.00;;;;;;;1.23;100.00;102905.59;7391232;19;20399;-60
2023/02/10 06:29:30;;;;;;;50.87;21.47;;;;;;;1.27;100.00;102905.22;7390954;19;20425;-59
2023/02/10 06:32:00;;;;;;;48.10;18.20;;;;;;;1.23;100.00;102909.00;7391687;19;20411;-56
2023/02/10 06:34:29;;;;;;;56.70;21.00;;;;;;;1.26;100.00;102904.28;7391283;19;21043;-58
2023/02/10 06:36:59;;;;;;;49.63;20.13;;;;;;;1.27;100.00;102915.38;7391069;19;20402;-58
2023/02/10 06:39:31;;;;;;;40.47;15.57;;;;;;;1.28;100.00;102913.00;7392376;19;20407;-58
2023/02/10 06:42:01;;;;;;;59.90;23.07;;;;;;;1.28;100.00;102915.53;7391432;19;20412;-59
2023/02/10 06:44:30;;;;;;;51.57;18.90;;;;;;;1.33;100.00;102914.44;7391435;19;20406;-57
2023/02/10 06:46:59;;;;;;;44.67;18.37;;;;;;;1.31;100.00;102914.97;7391277;19;20399;-60
2023/02/10 06:49:29;;;;;;;57.00;18.67;;;;;;;1.35;100.00;102919.69;7391671;19;20796;-59
2023/02/10 06:51:58;;;;;;;52.97;18.70;;;;;;;1.33;100.00;102911.00;7390166;19;20598;-59
2023/02/10 06:54:30;;;;;;;65.53;20.33;;;;;;;1.31;100.00;102928.63;7390456;19;20382;-60
2023/02/10 06:57:00;;;;;;;37.93;13.70;;;;;;;1.31;100.00;102927.69;7390225;19;20928;-60
2023/02/10 06:59:29;;;;;;;60.33;20.30;;;;;;;1.33;100.00;102933.91;7392012;19;20415;-60
2023/02/10 07:02:00;;;;;;;50.20;21.10;;;;;;;1.31;100.00;102931.16;7390299;19;20930;-59
2023/02/10 07:04:29;;;;;;;58.57;19.37;;;;;;;1.31;100.00;102928.63;7390506;19;21053;-60
2023/02/10 07:06:59;;;;;;;55.00;19.30;;;;;;;1.33;100.00;102931.34;7390273;19;20760;-59
2023/02/10 07:09:31;;;;;;;54.80;21.33;;;;;;;1.37;100.00;102933.50;7391773;19;20405;-59
2023/02/10 07:12:01;;;;;;;53.77;20.40;;;;;;;1.40;100.00;102938.94;7390120;19;20383;-60
2023/02/10 07:14:30;;;;;;;59.23;20.10;;;;;;;1.40;100.00;102935.47;7390704;19;20432;-60
2023/02/10 07:17:00;;;;;;;58.07;20.10;;;;;;;1.39;100.00;102937.09;7389338;19;20939;-60
2023/02/10 07:19:30;;;;;;;59.20;21.20;;;;;;;1.39;100.00;102946.41;7391218;19;20387;-59
2023/02/10 07:22:01;;;;;;;50.83;17.50;;;;;;;1.39;100.00;102949.81;7389994;19;20383;-58
2023/02/10 07:24:33;;;;;;;45.00;19.70;;;;;;;1.42;100.00;102955.28;7391239;19;20397;-56
2023/02/10 07:27:03;;;;;;;65.17;21.63;;;;;;;1.42;100.00;102950.19;7389403;19;20899;-60
2023/02/10 07:29:32;;;;;;;66.37;19.33;;;;;;;1.44;100.00;102951.25;7390917;19;20917;-59
2023/02/10 07:32:02;;;;;;;52.60;20.20;;;;;;;1.43;100.00;102954.53;7389973;19;20410;-58
2023/02/10 07:34:33;;;;;;;52.87;21.00;;;;;;;1.50;100.00;102950.16;7390128;19;20384;-60
2023/02/10 07:37:03;;;;;;;44.37;18.40;;;;;;;1.54;100.00;102958.31;7387617;19;20442;-58
2023/02/10 07:39:35;;;;;;;57.73;19.13;;;;;;;1.56;100.00;102963.56;7392609;19;20388;-60
2023/02/10 07:42:05;;;;;;;26.47;12.30;;;;;;;1.52;100.00;102957.22;7397195;19;20379;-57
2023/02/10 07:44:34;;;;;;;44.20;18.63;;;;;;;1.53;100.00;102969.22;7396759;19;20383;-60
2023/02/10 07:47:04;;;;;;;54.73;14.87;;;;;;;1.54;100.00;102965.06;7397848;19;20427;-59
2023/02/10 07:49:33;;;;;;;60.27;20.07;;;;;;;1.59;100.00;102969.03;7398065;19;20404;-60
2023/02/10 07:52:02;;;;;;;43.00;17.50;;;;;;;1.60;100.00;102964.09;7396651;19;20398;-57
2023/02/10 07:54:35;;;;;;;44.10;17.20;;;;;;;1.64;100.00;102965.34;7394686;19;20773;-61
2023/02/10 07:57:04;;;;;;;49.27;18.30;;;;;;;1.67;100.00;102975.88;7392674;19;20384;-58
2023/02/10 07:59:34;;;;;;;57.10;19.97;;;;;;;1.74;100.00;102968.22;7397716;19;20383;-60
2023/02/10 08:02:03;;;;;;;70.10;20.00;;;;;;;1.78;100.00;102966.03;7396516;19;20776;-59
2023/02/10 08:04:33;;;;;;;60.27;21.57;;;;;;;1.81;100.00;102974.00;7396903;19;20416;-60
2023/02/10 08:07:02;;;;;;;43.50;20.93;;;;;;;1.84;100.00;102970.16;7396371;19;20403;-59
2023/02/10 08:09:34;;;;;;;53.27;19.37;;;;;;;1.82;100.00;102979.28;7397483;19;20407;-58
2023/02/10 08:12:05;;;;;;;55.77;18.93;;;;;;;1.83;100.00;102973.44;7396197;19;20407;-58
2023/02/10 08:14:34;;;;;;;34.17;11.23;;;;;;;1.80;100.00;102978.16;7396702;19;20383;-57
2023/02/10 08:17:04;;;;;;;50.53;18.30;;;;;;;1.80;100.00;102979.81;7394506;19;20436;-60
2023/02/10 08:19:37;;;;;;;46.80;18.03;;;;;;;1.82;100.00;102992.00;7397174;19;20400;-60
2023/02/10 08:22:07;;;;;;;48.87;15.43;;;;;;;1.77;100.00;102993.09;7395912;19;20418;-59
2023/02/10 08:24:39;;;;;;;35.27;15.33;;;;;;;1.84;100.00;102997.28;7395759;19;21113;-60
2023/02/10 08:27:08;;;;;;;50.07;22.10;;;;;;;1.88;100.00;102981.59;7394763;19;20389;-59
2023/02/10 08:29:40;;;;;;;61.03;20.07;;;;;;;1.86;100.00;102985.63;7392013;19;20411;-59
2023/02/10 08:32:10;;;;;;;54.63;19.40;;;;;;;1.84;100.00;102987.09;7390987;19;20386;-60
2023/02/10 08:34:39;;;;;;;65.10;22.67;;;;;;;1.88;100.00;102984.13;7391487;19;20789;-60
2023/02/10 08:37:09;;;;;;;45.30;19.77;;;;;;;1.88;100.00;102981.59;7388488;19;20426;-58
2023/02/10 08:39:41;;;;;;;46.53;14.57;;;;;;;1.85;100.00;102991.44;7392284;19;20407;-60
2023/02/10 08:42:11;;;;;;;48.13;19.70;;;;;;;1.91;100.00;102991.22;7389324;19;20422;-61
2023/02/10 08:44:40;;;;;;;77.23;21.57;;;;;;;2.01;100.00;102983.88;7392261;19;20978;-60
2023/02/10 08:47:11;;;;;;;64.90;20.23;;;;;;;1.98;100.00;102984.44;7395675;19;20403;-55
2023/02/10 08:49:40;;;;;;;56.37;17.77;;;;;;;2.04;100.00;102978.22;7397101;19;20407;-59
2023/02/10 08:52:10;;;;;;;52.50;17.63;;;;;;;2.08;100.00;102976.19;7394203;19;20387;-59
2023/02/10 08:54:42;;;;;;;45.07;18.63;;;;;;;2.13;100.00;102980.16;7396186;19;20403;-59
2023/02/10 08:57:12;;;;;;;57.60;19.70;;;;;;;2.22;100.00;102979.38;7393066;19;20411;-58
2023/02/10 08:59:41;;;;;;;42.53;18.30;;;;;;;2.30;100.00;102978.56;7397217;19;20419;-59
2023/02/10 09:02:12;;;;;;;43.67;16.20;;;;;;;2.12;100.00;102991.09;7394853;19;20391;-60
2023/02/10 09:04:42;;;;;;;48.50;14.67;;;;;;;2.14;100.00;102991.25;7396185;19;20820;-60
2023/02/10 09:07:13;;;;;;;43.97;17.13;;;;;;;2.13;100.00;102994.53;7392876;19;20390;-58
2023/02/10 09:09:46;;;;;;;51.93;18.43;;;;;;;2.20;100.00;102999.56;7396028;19;20422;-58
2023/02/10 09:12:15;;;;;;;51.23;16.37;;;;;;;2.15;100.00;102995.59;7394478;19;20387;-60
2023/02/10 09:14:45;;;;;;;37.47;15.87;;;;;;;2.13;100.00;102994.53;7395893;19;20415;-60
2023/02/10 09:17:14;;;;;;;43.80;18.50;;;;;;;2.14;100.00;102996.34;7393199;19;20414;-59
2023/02/10 09:19:43;;;;;;;61.10;19.00;;;;;;;2.19;100.00;102992.66;7396295;19;20402;-59
2023/02/10 09:22:13;;;;;;;42.50;18.00;;;;;;;2.16;100.00;102993.22;7394561;19;20783;-60
2023/02/10 09:24:46;;;;;;;47.50;16.57;;;;;;;2.11;100.00;103004.53;7394955;19;20403;-61
2023/02/10 09:27:18;;;;;;;23.73;10.97;;;;;;;2.10;100.00;103001.84;7392753;19;20938;-61
2023/02/10 09:29:48;;;;;;;44.07;16.00;;;;;;;2.10;100.00;103006.94;7396346;19;20471;-61
2023/02/10 09:32:17;;;;;;;48.93;19.17;;;;;;;2.13;100.00;103012.34;7393061;19;20399;-56
2023/02/10 09:34:47;;;;;;;23.13;9.40;;;;;;;2.10;100.00;103015.47;7394962;19;20399;-60
2023/02/10 09:37:16;;;;;;;44.57;17.43;;;;;;;2.02;100.00;103012.03;7392125;19;20400;-60
2023/02/10 09:39:46;;;;;;;49.47;17.40;;;;;;;2.08;100.00;103003.28;7392328;19;20414;-60
2023/02/10 09:42:25;;;;;;;59.93;21.97;;;;;;;2.10;100.00;102999.28;7391512;19;20426;-60
2023/02/10 09:44:58;;;;;;;48.63;18.57;;;;;;;2.11;100.00;103006.19;7394628;19;20442;-60
2023/02/10 09:47:38;;;;;;;49.97;15.80;;;;;;;2.12;100.00;103011.47;7392113;19;20432;-59
2023/02/10 09:50:21;;;;;;;42.13;12.67;;;;;;;2.05;100.00;103010.59;7393425;19;20403;-58
2023/02/10 09:53:02;;;;;;;56.93;18.00;;;;;;;2.00;100.00;103013.53;7390857;19;20419;-60
2023/02/10 09:55:34;;;;;;;56.77;19.50;;;;;;;2.06;100.00;103009.88;7393664;19;21076;-61
2023/02/10 09:58:15;;;;;;;44.30;12.80;;;;;;;2.04;100.00;103013.88;7389747;19;20426;-59
2023/02/10 10:00:46;;;;;;;67.20;20.40;;;;;;;2.11;100.00;103007.09;7394680;19;20387;-60
2023/02/10 10:03:18;;;;;;;35.07;15.00;;;;;;;2.09;100.00;103012.75;7387188;19;20447;-60
2023/02/10 10:05:55;;;;;;;43.70;15.33;;;;;;;2.18;100.00;103001.06;7394073;19;20461;-59
2023/02/10 10:08:29;;;;;;;52.57;16.37;;;;;;;2.21;100.00;103003.03;7388786;19;20435;-59
2023/02/10 10:11:03;;;;;;;53.13;17.40;;;;;;;2.22;100.00;102998.13;7394840;19;20902;-58
2023/02/10 10:13:35;;;;;;;47.10;17.00;;;;;;;2.29;100.00;103008.25;7388904;19;20402;-58
2023/02/10 10:16:19;;;;;;;63.70;22.47;;;;;;;2.36;100.00;103008.94;7394101;19;20446;-60
2023/02/10 10:18:57;;;;;;;66.70;21.70;;;;;;;2.38;100.00;103007.47;7389445;19;20442;-59
2023/02/10 10:21:33;;;;;;;71.77;20.80;;;;;;;2.45;100.00;103009.94;7394021;19;20407;-60
2023/02/10 10:24:11;;;;;;;62.93;22.13;;;;;;;2.52;100.00;103004.78;7389857;19;20477;-61
2023/02/10 10:26:50;;;;;;;46.03;18.37;;;;;;;2.48;100.00;103010.31;7392108;19;20446;-60
2023/02/10 10:29:31;;;;;;;59.23;20.13;;;;;;;2.58;100.00;103007.13;7390646;19;20427;-60
2023/02/10 10:32:07;;;;;;;57.97;21.00;;;;;;;2.56;100.00;103009.50;7389722;19;20515;-59
2023/02/10 10:34:40;;;;;;;57.07;21.00;;;;;;;2.65;100.00;103016.34;7392235;19;20750;-61
2023/02/10 10:37:15;;;;;;;44.73;18.47;;;;;;;2.65;100.00;103024.00;7390829;19;20434;-61
2023/02/10 10:39:46;;;;;;;45.07;18.87;;;;;;;2.72;100.00;103016.28;7393538;19;20407;-61
2023/02/10 10:42:23;;;;;;;45.50;19.60;;;;;;;2.73;100.00;103033.41;7391269;19;20404;-59
2023/02/10 10:44:59;;;;;;;50.03;17.10;;;;;;;2.73;100.00;103035.97;7392723;19;20391;-58
2023/02/10 10:47:38;;;;;;;48.90;17.80;;;;;;;2.77;100.00;103039.75;7388490;19;20398;-60
2023/02/10 10:50:08;;;;;;;54.23;18.37;;;;;;;2.82;100.00;103047.16;7393904;19;20407;-60
2023/02/10 10:52:38;;;;;;;54.83;19.57;;;;;;;2.77;100.00;103045.75;7388601;19;20419;-59
2023/02/10 10:55:12;;;;;;;47.40;18.90;;;;;;;2.88;100.00;103041.84;7392666;19;20403;-60
2023/02/10 10:57:42;;;;;;;51.57;15.90;;;;;;;2.94;100.00;103046.69;7388095;19;20410;-58
2023/02/10 11:00:22;;;;;;;58.53;21.53;;;;;;;3.01;100.00;103054.28;7393778;19;20403;-60
2023/02/10 11:02:57;;;;;;;46.67;18.00;;;;;;;3.04;100.00;103053.72;7388000;19;20415;-61
2023/02/10 11:05:31;;;;;;;40.50;17.63;;;;;;;2.96;100.00;103058.88;7391156;19;20837;-60
2023/02/10 11:08:00;;;;;;;47.50;18.00;;;;;;;3.00;100.00;103059.19;7388758;19;20981;-59
2023/02/10 11:10:34;;;;;;;50.63;19.10;;;;;;;3.00;100.00;103049.91;7392037;19;20410;-60
2023/02/10 11:13:04;;;;;;;58.57;21.30;;;;;;;3.08;100.00;103049.09;7388280;19;20411;-60
2023/02/10 11:15:40;;;;;;;51.17;19.63;;;;;;;3.12;100.00;103055.44;7394580;19;20435;-60
2023/02/10 11:18:18;;;;;;;49.50;19.17;;;;;;;3.22;100.00;103057.34;7395553;19;20769;-61
2023/02/10 11:20:56;;;;;;;41.70;18.50;;;;;;;3.16;100.00;103056.69;7400081;19;20413;-57
2023/02/10 11:23:26;;;;;;;33.23;16.27;;;;;;;3.19;100.00;103063.00;7394286;19;20439;-61
2023/02/10 11:26:04;;;;;;;41.60;17.40;;;;;;;3.13;100.00;103056.34;7397824;19;20435;-58
2023/02/10 11:28:35;;;;;;;46.17;16.17;;;;;;;3.16;100.00;103066.88;7394602;19;20439;-59